Time;durP1;ratioP1;P1;durP2;ratioP2;P2;SDS_P1;SDS_P2;PMS_P1;PMS_P2;Temp;Humidity;BMP_temperature;BMP_pressure;BME280_temperature;BME280_humidity;BME280_pressure;Samples;Min_cycle;Max_cycle;Signal;HPM_P1;HPM_P2
2022/09/10 00:01:45;;;;;;;0.60;0.55;;;15.10;99.90;;;;;;4954800;28;20082;-68
2022/09/10 00:04:14;;;;;;;0.80;0.50;;;15.10;99.90;;;;;;4971845;28;20066;-68
2022/09/10 00:06:41;;;;;;;2.42;0.70;;;15.20;99.90;;;;;;4954987;28;20117;-68
2022/09/10 00:09:09;;;;;;;1.40;0.68;;;15.30;99.90;;;;;;4954403;28;20399;-68
2022/09/10 00:11:37;;;;;;;0.60;0.50;;;15.40;99.90;;;;;;4954719;28;20031;-67
2022/09/10 00:14:06;;;;;;;0.70;0.47;;;15.30;99.90;;;;;;4971850;28;20019;-68
2022/09/10 00:16:32;;;;;;;0.40;0.40;;;15.30;99.90;;;;;;4954919;28;20034;-67
2022/09/10 00:19:00;;;;;;;0.73;0.40;;;15.30;99.90;;;;;;4971487;28;20031;-68
2022/09/10 00:21:26;;;;;;;2.05;0.47;;;15.30;99.90;;;;;;4972139;28;20062;-68
2022/09/10 00:23:53;;;;;;;0.85;0.43;;;15.40;99.90;;;;;;4954540;28;20027;-67
2022/09/10 00:26:29;;;;;;;0.63;0.40;;;15.40;99.90;;;;;;4972004;28;20463;-67
2022/09/10 00:29:00;;;;;;;0.00;0.00;;;15.40;99.90;;;;;;4971634;28;20127;-67
2022/09/10 00:31:27;;;;;;;4.07;0.37;;;15.40;99.90;;;;;;4954863;28;20031;-68
2022/09/10 00:33:53;;;;;;;4.18;2.05;;;15.40;99.90;;;;;;4971732;28;20105;-67
2022/09/10 00:36:34;;;;;;;0.50;0.40;;;15.20;99.90;;;;;;4971908;28;20031;-68
2022/09/10 00:39:04;;;;;;;2.65;0.45;;;15.30;99.90;;;;;;4954302;28;20074;-68
2022/09/10 00:41:32;;;;;;;0.10;0.10;;;15.20;99.90;;;;;;4954999;28;20070;-67
2022/09/10 00:44:05;;;;;;;0.45;0.40;;;15.20;99.90;;;;;;4971491;28;20403;-68
2022/09/10 00:46:49;;;;;;;0.47;0.22;;;15.10;99.90;;;;;;4954802;28;20037;-68
2022/09/10 00:49:30;;;;;;;0.20;0.20;;;15.20;99.90;;;;;;4953863;28;20038;-67
2022/09/10 00:51:56;;;;;;;;;;;15.30;99.90;;;;;;4955540;28;20118;-68
2022/09/10 00:54:25;;;;;;;1.33;0.60;;;15.30;99.90;;;;;;4954402;28;20004;-68
2022/09/10 00:56:55;;;;;;;0.43;0.30;;;15.30;99.90;;;;;;4954693;28;20041;-68
2022/09/10 00:59:24;;;;;;;0.55;0.30;;;15.30;99.90;;;;;;4954364;28;20042;-68
2022/09/10 01:01:50;;;;;;;1.40;0.38;;;15.30;99.90;;;;;;4954606;28;20030;-67
2022/09/10 01:04:16;;;;;;;0.40;0.40;;;15.40;99.90;;;;;;4970875;28;20150;-67
2022/09/10 01:06:45;;;;;;;0.38;0.38;;;15.40;99.90;;;;;;4973241;28;20026;-67
2022/09/10 01:09:13;;;;;;;0.10;0.10;;;15.40;99.90;;;;;;4989357;28;20078;-68
2022/09/10 01:12:16;;;;;;;2.83;0.75;;;15.50;99.90;;;;;;4993161;28;20044;-69
2022/09/10 01:15:04;;;;;;;0.65;0.32;;;15.50;99.90;;;;;;4993150;28;20062;-68
2022/09/10 01:18:29;;;;;;;0.10;0.10;;;15.40;99.90;;;;;;4973852;28;20037;-68
2022/09/10 01:21:09;;;;;;;1.98;0.93;;;15.20;99.90;;;;;;4939503;28;20046;-68
2022/09/10 01:23:58;;;;;;;2.05;1.42;;;15.20;99.90;;;;;;4978453;28;20118;-68
2022/09/10 01:27:11;;;;;;;0.45;0.22;;;15.20;99.90;;;;;;4993163;28;20042;-68
2022/09/10 01:29:51;;;;;;;0.43;0.30;;;15.10;99.90;;;;;;4992682;28;20506;-69
2022/09/10 01:32:34;;;;;;;1.70;0.50;;;15.10;99.90;;;;;;4993752;28;20387;-68
2022/09/10 01:35:20;;;;;;;3.67;0.70;;;15.00;99.90;;;;;;4976782;28;20030;-68
2022/09/10 01:37:53;;;;;;;0.80;0.55;;;15.10;99.90;;;;;;4976570;28;20030;-68
2022/09/10 01:40:28;;;;;;;1.38;0.50;;;15.00;99.90;;;;;;4990996;28;20034;-68
2022/09/10 01:43:02;;;;;;;1.27;0.88;;;15.00;99.90;;;;;;4973081;28;20391;-68
2022/09/10 01:45:31;;;;;;;0.25;0.25;;;15.00;99.90;;;;;;4957199;28;20063;-68
2022/09/10 01:48:16;;;;;;;0.52;0.28;;;15.00;99.90;;;;;;4973073;28;20031;-68
2022/09/10 01:50:56;;;;;;;0.60;0.30;;;14.90;99.90;;;;;;4973902;28;20525;-68
2022/09/10 01:53:58;;;;;;;0.50;0.50;;;15.00;99.90;;;;;;4972824;28;20027;-68
2022/09/10 01:56:54;;;;;;;1.85;0.85;;;14.90;99.90;;;;;;4973150;28;20027;-68
2022/09/10 02:00:00;;;;;;;0.93;0.60;;;14.90;99.90;;;;;;4972764;28;20046;-68
2022/09/10 02:02:40;;;;;;;1.15;0.40;;;14.90;99.90;;;;;;4960767;28;20045;-68
2022/09/10 02:05:08;;;;;;;0.50;0.40;;;14.90;99.90;;;;;;4973009;28;20081;-67
2022/09/10 02:07:36;;;;;;;2.50;0.35;;;14.90;99.90;;;;;;4973654;28;20109;-68
2022/09/10 02:10:04;;;;;;;2.83;0.82;;;14.90;99.90;;;;;;4973723;28;20106;-67
2022/09/10 02:12:30;;;;;;;0.82;0.43;;;14.90;99.90;;;;;;4973584;28;20039;-67
2022/09/10 02:14:56;;;;;;;1.35;0.50;;;14.90;99.90;;;;;;4977899;28;20082;-68
2022/09/10 02:17:34;;;;;;;1.55;0.90;;;15.00;99.90;;;;;;4992801;28;20041;-68
2022/09/10 02:20:01;;;;;;;2.92;0.93;;;15.10;99.90;;;;;;4991926;28;20022;-68
2022/09/10 02:22:31;;;;;;;2.40;0.98;;;15.10;99.90;;;;;;4975385;28;20380;-67
2022/09/10 02:24:57;;;;;;;1.40;0.40;;;15.20;99.90;;;;;;4992872;28;20026;-68
2022/09/10 02:27:23;;;;;;;0.90;0.40;;;15.30;99.90;;;;;;4993043;28;20398;-67
2022/09/10 02:29:49;;;;;;;0.73;0.45;;;15.30;99.90;;;;;;4992818;28;20034;-68
2022/09/10 02:32:16;;;;;;;0.57;0.55;;;15.30;99.90;;;;;;4992719;28;20038;-67
2022/09/10 02:34:41;;;;;;;0.55;0.45;;;15.30;99.90;;;;;;4975393;28;20046;-68
2022/09/10 02:37:07;;;;;;;0.52;0.40;;;15.40;99.90;;;;;;4992981;28;20109;-68
2022/09/10 02:39:34;;;;;;;0.17;0.10;;;15.40;99.90;;;;;;4991343;28;20113;-68
2022/09/10 02:42:00;;;;;;;1.30;0.60;;;15.30;99.90;;;;;;4992707;28;20642;-67
2022/09/10 02:44:27;;;;;;;0.25;0.10;;;15.20;99.90;;;;;;4992573;28;20030;-68
2022/09/10 02:46:54;;;;;;;0.08;0.08;;;15.30;99.90;;;;;;4992944;28;20038;-67
2022/09/10 02:49:20;;;;;;;10.75;0.65;;;15.30;99.90;;;;;;4985639;23;20058;-68
2022/09/10 02:51:49;;;;;;;0.20;0.20;;;15.40;99.90;;;;;;4986457;28;20495;-68
2022/09/10 02:54:15;;;;;;;7.80;1.05;;;15.40;99.90;;;;;;4974740;28;20125;-68
2022/09/10 02:56:42;;;;;;;2.08;0.65;;;15.30;99.90;;;;;;4975380;28;20491;-68
2022/09/10 02:59:09;;;;;;;2.35;0.45;;;15.20;99.90;;;;;;4992304;28;20031;-69
2022/09/10 03:01:35;;;;;;;0.95;0.57;;;15.10;99.90;;;;;;4992352;28;20034;-68
2022/09/10 03:04:01;;;;;;;0.65;0.65;;;15.20;99.90;;;;;;4980422;28;20034;-68
2022/09/10 03:06:27;;;;;;;0.32;0.22;;;15.20;99.90;;;;;;4981341;28;20034;-68
2022/09/10 03:08:56;;;;;;;0.38;0.30;;;15.20;99.90;;;;;;4991717;28;20035;-65
2022/09/10 03:11:23;;;;;;;0.30;0.30;;;15.30;99.90;;;;;;4965743;28;20035;-66
2022/09/10 03:13:49;;;;;;;0.63;0.20;;;15.30;99.90;;;;;;4972042;28;20023;-66
2022/09/10 03:16:17;;;;;;;1.15;0.60;;;15.30;99.90;;;;;;4971235;28;20101;-68
2022/09/10 03:18:43;;;;;;;0.20;0.17;;;15.40;99.90;;;;;;4991688;28;20038;-67
2022/09/10 03:21:19;;;;;;;1.17;0.57;;;15.40;99.90;;;;;;4972858;28;20636;-67
2022/09/10 03:23:48;;;;;;;2.72;0.20;;;15.30;99.90;;;;;;4972383;28;20130;-67
2022/09/10 03:26:15;;;;;;;0.50;0.38;;;15.40;99.90;;;;;;4971328;28;20582;-67
2022/09/10 03:28:42;;;;;;;0.30;0.30;;;15.40;99.90;;;;;;4971514;28;20047;-66
2022/09/10 03:31:09;;;;;;;1.25;0.50;;;15.30;99.90;;;;;;4972406;28;20030;-67
2022/09/10 03:33:36;;;;;;;0.15;0.15;;;15.40;99.90;;;;;;4971819;28;20034;-67
2022/09/10 03:36:03;;;;;;;2.42;0.45;;;15.40;99.90;;;;;;4973809;28;20546;-67
2022/09/10 03:38:29;;;;;;;2.30;0.17;;;15.30;99.90;;;;;;4991588;28;20034;-67
2022/09/10 03:40:55;;;;;;;0.20;0.20;;;15.20;99.90;;;;;;4991280;28;20081;-67
2022/09/10 03:43:21;;;;;;;0.80;0.60;;;15.10;99.90;;;;;;4991290;28;20031;-69
2022/09/10 03:45:48;;;;;;;0.15;0.10;;;15.10;99.90;;;;;;4991687;28;20549;-66
2022/09/10 03:48:16;;;;;;;0.30;0.20;;;15.10;99.90;;;;;;4991601;28;20438;-65
2022/09/10 03:50:43;;;;;;;0.43;0.28;;;15.10;99.90;;;;;;4991021;28;20368;-65
2022/09/10 03:53:13;;;;;;;1.13;0.30;;;15.20;99.90;;;;;;4991041;28;20089;-66
2022/09/10 03:55:43;;;;;;;0.63;0.13;;;15.20;99.90;;;;;;4991516;28;20023;-66
2022/09/10 03:58:09;;;;;;;0.57;0.57;;;15.10;99.90;;;;;;4991514;28;20114;-66
2022/09/10 04:00:34;;;;;;;1.38;0.85;;;15.20;99.90;;;;;;4989709;28;20121;-66
2022/09/10 04:03:01;;;;;;;0.63;0.38;;;15.20;99.90;;;;;;4989793;28;20030;-66
2022/09/10 04:05:27;;;;;;;0.40;0.30;;;15.20;99.90;;;;;;4991102;28;20486;-66
2022/09/10 04:07:55;;;;;;;2.00;0.22;;;15.30;99.90;;;;;;4991352;28;20034;-66
2022/09/10 04:10:21;;;;;;;0.20;0.20;;;15.30;99.90;;;;;;4986609;28;20110;-66
2022/09/10 04:12:50;;;;;;;0.50;0.20;;;15.20;99.90;;;;;;4971668;28;20110;-66
2022/09/10 04:15:16;;;;;;;4.50;1.00;;;15.20;99.90;;;;;;4979672;28;20470;-67
2022/09/10 04:17:41;;;;;;;0.70;0.35;;;15.30;99.90;;;;;;4991247;28;20046;-67
2022/09/10 04:20:08;;;;;;;0.10;0.10;;;15.30;99.90;;;;;;4990511;28;20474;-67
2022/09/10 04:22:33;;;;;;;0.75;0.55;;;15.40;99.90;;;;;;4990966;28;20520;-67
2022/09/10 04:24:59;;;;;;;0.35;0.30;;;15.30;99.90;;;;;;4991071;28;20120;-67
2022/09/10 04:27:25;;;;;;;0.80;0.20;;;15.30;99.90;;;;;;4991048;28;20494;-67
2022/09/10 04:29:51;;;;;;;1.08;0.47;;;15.30;99.90;;;;;;4989499;28;20065;-66
2022/09/10 04:32:17;;;;;;;1.33;0.98;;;15.30;99.90;;;;;;4990466;28;20041;-66
2022/09/10 04:34:43;;;;;;;0.30;0.25;;;15.30;99.90;;;;;;4989879;28;20398;-67
2022/09/10 04:37:09;;;;;;;0.50;0.40;;;15.30;99.90;;;;;;4973737;28;20037;-67
2022/09/10 04:39:35;;;;;;;3.55;0.50;;;15.30;99.90;;;;;;4991937;28;20033;-66
2022/09/10 04:42:02;;;;;;;0.40;0.40;;;15.20;99.90;;;;;;4994409;28;20030;-67
2022/09/10 04:44:28;;;;;;;0.80;0.55;;;15.30;99.90;;;;;;4993751;28;20041;-67
2022/09/10 04:46:55;;;;;;;0.90;0.30;;;15.30;99.90;;;;;;4994815;28;20486;-66
2022/09/10 04:49:21;;;;;;;0.47;0.30;;;15.30;99.90;;;;;;4993079;28;20046;-66
2022/09/10 04:51:46;;;;;;;0.40;0.20;;;15.20;99.90;;;;;;4994599;28;20034;-67
2022/09/10 04:54:13;;;;;;;0.63;0.35;;;15.10;99.90;;;;;;4994503;28;20054;-67
2022/09/10 04:56:39;;;;;;;0.50;0.30;;;15.10;99.90;;;;;;4993089;28;20034;-67
2022/09/10 04:59:05;;;;;;;6.55;2.70;;;15.20;99.90;;;;;;4993077;28;20491;-66
2022/09/10 05:01:30;;;;;;;0.35;0.30;;;15.20;99.90;;;;;;4994550;28;20045;-67
2022/09/10 05:03:56;;;;;;;0.50;0.35;;;15.20;99.90;;;;;;4993974;28;20042;-66
2022/09/10 05:06:22;;;;;;;0.80;0.55;;;15.20;99.90;;;;;;4994688;28;20085;-67
2022/09/10 05:08:48;;;;;;;0.55;0.47;;;15.20;99.90;;;;;;4993899;28;20041;-66
2022/09/10 05:11:14;;;;;;;0.52;0.35;;;15.10;99.90;;;;;;4984225;28;20031;-66
2022/09/10 05:13:40;;;;;;;2.72;0.85;;;15.10;99.90;;;;;;4974818;28;20037;-66
2022/09/10 05:16:06;;;;;;;2.25;0.70;;;15.00;99.90;;;;;;4989214;28;20065;-66
2022/09/10 05:18:32;;;;;;;0.95;0.28;;;15.00;99.90;;;;;;4994046;28;20030;-66
2022/09/10 05:20:58;;;;;;;3.92;0.38;;;15.00;99.90;;;;;;4993726;28;20057;-66
2022/09/10 05:23:24;;;;;;;1.00;0.50;;;15.00;99.90;;;;;;4993886;28;20034;-66
2022/09/10 05:25:50;;;;;;;5.50;1.20;;;15.00;99.90;;;;;;4993816;28;20045;-66
2022/09/10 05:28:16;;;;;;;16.05;2.97;;;15.00;99.90;;;;;;4994066;28;20026;-66
2022/09/10 05:30:44;;;;;;;3.80;1.42;;;15.00;99.90;;;;;;4992409;28;20470;-66
2022/09/10 05:33:09;;;;;;;4.97;1.40;;;15.00;99.90;;;;;;4992399;28;20031;-66
2022/09/10 05:35:35;;;;;;;0.17;0.17;;;15.00;99.90;;;;;;4993980;28;20041;-66
2022/09/10 05:38:01;;;;;;;0.43;0.30;;;15.00;99.90;;;;;;4993865;28;20034;-66
2022/09/10 05:40:28;;;;;;;0.40;0.35;;;15.00;99.90;;;;;;4993393;28;20093;-66
2022/09/10 05:42:54;;;;;;;0.55;0.35;;;15.00;99.90;;;;;;4992269;28;20058;-66
2022/09/10 05:45:22;;;;;;;0.82;0.68;;;15.10;99.90;;;;;;4992705;28;20053;-66
2022/09/10 05:47:49;;;;;;;1.23;0.30;;;15.10;99.90;;;;;;4993725;28;20121;-66
2022/09/10 05:50:16;;;;;;;0.20;0.20;;;15.20;99.90;;;;;;4993107;28;20061;-66
2022/09/10 05:52:42;;;;;;;0.98;0.52;;;15.20;99.90;;;;;;4975050;28;20038;-67
2022/09/10 05:55:08;;;;;;;1.63;0.30;;;15.20;99.90;;;;;;4993789;28;20026;-66
2022/09/10 05:57:34;;;;;;;12.73;3.60;;;15.20;99.90;;;;;;4993491;28;20034;-65
2022/09/10 06:00:01;;;;;;;13.95;2.63;;;15.20;99.90;;;;;;4992045;28;20038;-66
2022/09/10 06:02:26;;;;;;;1.23;0.98;;;15.20;99.90;;;;;;4972444;28;20053;-66
2022/09/10 06:04:52;;;;;;;9.75;1.17;;;15.20;99.90;;;;;;4973896;28;20478;-67
2022/09/10 06:07:17;;;;;;;1.17;0.52;;;15.20;99.90;;;;;;4973992;28;20034;-67
2022/09/10 06:09:43;;;;;;;0.35;0.28;;;15.30;99.90;;;;;;4973829;28;20039;-67
2022/09/10 06:12:09;;;;;;;5.35;0.70;;;15.30;99.90;;;;;;4990960;28;20117;-67
2022/09/10 06:14:34;;;;;;;0.93;0.85;;;15.30;99.90;;;;;;4992070;28;20030;-67
2022/09/10 06:17:00;;;;;;;0.17;0.17;;;15.30;99.90;;;;;;4993388;28;20026;-67
2022/09/10 06:19:26;;;;;;;1.17;0.70;;;15.30;99.90;;;;;;4992586;28;20034;-66
2022/09/10 06:21:51;;;;;;;10.48;2.08;;;15.30;99.90;;;;;;4993355;28;20065;-67
2022/09/10 06:24:21;;;;;;;15.32;2.42;;;15.20;99.90;;;;;;4992844;28;20553;-66
2022/09/10 06:26:49;;;;;;;4.70;1.10;;;15.20;99.90;;;;;;4991988;28;20026;-66
2022/09/10 06:29:17;;;;;;;0.55;0.50;;;15.20;99.90;;;;;;4992610;28;20042;-67
2022/09/10 06:31:45;;;;;;;1.65;0.30;;;15.30;99.90;;;;;;4993263;28;20085;-66
2022/09/10 06:34:11;;;;;;;4.50;2.28;;;15.30;99.90;;;;;;4991430;28;20062;-67
2022/09/10 06:36:37;;;;;;;2.70;0.70;;;15.30;99.90;;;;;;4992970;28;20030;-66
2022/09/10 06:39:05;;;;;;;3.72;1.85;;;15.30;99.90;;;;;;4991234;28;20520;-66
2022/09/10 06:41:32;;;;;;;5.03;1.52;;;15.30;99.90;;;;;;4992946;28;20030;-67
2022/09/10 06:43:57;;;;;;;2.00;1.05;;;15.30;99.90;;;;;;4992371;28;20030;-66
2022/09/10 06:46:23;;;;;;;12.52;1.00;;;15.30;99.90;;;;;;4992941;28;20509;-67
2022/09/10 06:48:49;;;;;;;5.75;1.10;;;15.30;99.90;;;;;;4992104;28;20034;-67
2022/09/10 06:51:15;;;;;;;0.65;0.45;;;15.30;99.90;;;;;;4992612;28;20042;-67
2022/09/10 06:53:45;;;;;;;14.65;3.20;;;15.40;99.90;;;;;;4991093;28;20077;-66
2022/09/10 06:56:12;;;;;;;2.80;1.23;;;15.40;99.90;;;;;;4992905;28;20018;-67
2022/09/10 06:58:38;;;;;;;2.28;1.38;;;15.30;99.90;;;;;;4992469;28;20479;-66
2022/09/10 07:01:13;;;;;;;1.85;0.63;;;15.40;99.90;;;;;;4992135;28;20442;-66
2022/09/10 07:03:42;;;;;;;0.50;0.50;;;15.40;99.90;;;;;;4991837;28;20122;-66
2022/09/10 07:06:12;;;;;;;4.38;0.60;;;15.40;99.90;;;;;;4991461;28;20038;-66
2022/09/10 07:08:38;;;;;;;1.35;0.65;;;15.40;99.90;;;;;;4991968;28;20506;-66
2022/09/10 07:11:11;;;;;;;2.50;0.52;;;15.50;99.90;;;;;;4983056;28;20517;-66
2022/09/10 07:13:37;;;;;;;2.63;0.50;;;15.50;99.90;;;;;;4955148;28;20037;-67
2022/09/10 07:16:03;;;;;;;0.45;0.45;;;15.50;99.90;;;;;;4971765;28;20193;-67
2022/09/10 07:18:30;;;;;;;0.40;0.32;;;15.50;99.90;;;;;;4955342;28;20034;-66
2022/09/10 07:21:14;;;;;;;3.20;0.80;;;15.50;99.90;;;;;;4971270;28;20676;-66
2022/09/10 07:23:40;;;;;;;0.65;0.47;;;15.50;99.90;;;;;;4971865;28;20035;-66
2022/09/10 07:26:13;;;;;;;12.38;1.13;;;15.50;99.90;;;;;;4971292;28;20058;-66
2022/09/10 07:28:41;;;;;;;2.00;0.65;;;15.60;99.90;;;;;;4972691;28;20129;-67
2022/09/10 07:31:33;;;;;;;0.40;0.30;;;15.60;99.90;;;;;;4971181;28;20037;-66
2022/09/10 07:34:00;;;;;;;;;;;15.70;99.90;;;;;;4971091;28;20364;-66
2022/09/10 07:36:27;;;;;;;2.75;0.70;;;15.70;99.90;;;;;;4971243;28;19910;-67
2022/09/10 07:39:03;;;;;;;21.38;2.53;;;15.70;99.90;;;;;;4970844;28;20049;-66
2022/09/10 07:41:30;;;;;;;0.45;0.40;;;15.70;99.90;;;;;;4972496;28;20038;-66
2022/09/10 07:43:56;;;;;;;1.05;0.50;;;15.80;99.90;;;;;;4970791;28;20019;-66
2022/09/10 07:46:24;;;;;;;0.95;0.60;;;15.80;99.90;;;;;;4971215;28;20019;-66
2022/09/10 07:48:56;;;;;;;0.80;0.40;;;15.80;99.90;;;;;;4954478;28;20039;-66
2022/09/10 07:51:23;;;;;;;1.23;0.60;;;15.80;99.90;;;;;;4971947;28;20113;-66
2022/09/10 07:53:54;;;;;;;11.60;1.23;;;15.90;99.90;;;;;;4971500;28;20030;-66
2022/09/10 07:56:21;;;;;;;0.57;0.50;;;15.90;99.90;;;;;;4970639;28;20037;-66
2022/09/10 07:58:47;;;;;;;0.73;0.57;;;15.90;99.90;;;;;;4970332;28;20034;-66
2022/09/10 08:01:14;;;;;;;0.82;0.43;;;15.90;99.90;;;;;;4972267;28;20048;-66
2022/09/10 08:03:40;;;;;;;1.23;0.70;;;15.90;99.90;;;;;;4971622;28;20062;-66
2022/09/10 08:06:08;;;;;;;1.13;0.98;;;15.90;99.90;;;;;;4972173;28;20046;-66
2022/09/10 08:08:37;;;;;;;1.85;0.47;;;16.00;99.90;;;;;;4971847;28;20040;-66
2022/09/10 08:11:16;;;;;;;0.90;0.45;;;16.00;99.90;;;;;;4979805;28;20039;-66
2022/09/10 08:13:49;;;;;;;4.65;0.57;;;16.00;99.90;;;;;;4990897;28;20026;-66
2022/09/10 08:16:21;;;;;;;1.08;0.57;;;16.00;99.90;;;;;;4991551;28;20030;-66
2022/09/10 08:18:50;;;;;;;2.17;1.25;;;16.00;99.90;;;;;;4989674;28;20027;-66
2022/09/10 08:21:17;;;;;;;2.10;0.90;;;16.10;99.90;;;;;;4991274;28;20027;-66
2022/09/10 08:23:52;;;;;;;0.30;0.30;;;16.20;99.90;;;;;;4990792;28;20033;-66
2022/09/10 08:26:22;;;;;;;1.60;0.70;;;16.20;99.90;;;;;;4991208;28;20037;-66
2022/09/10 08:28:49;;;;;;;0.95;0.60;;;16.20;99.90;;;;;;4989574;28;20027;-66
2022/09/10 08:31:15;;;;;;;1.23;0.70;;;16.20;99.90;;;;;;4991122;28;20117;-66
2022/09/10 08:33:49;;;;;;;1.45;0.38;;;16.20;99.90;;;;;;4990794;28;20084;-66
2022/09/10 08:36:17;;;;;;;3.05;0.68;;;16.30;99.90;;;;;;4990137;28;20026;-66
2022/09/10 08:38:44;;;;;;;6.78;1.27;;;16.30;99.90;;;;;;4989769;28;20100;-66
2022/09/10 08:41:24;;;;;;;2.47;0.60;;;16.40;99.90;;;;;;4989879;28;20030;-66
2022/09/10 08:44:04;;;;;;;0.90;0.47;;;16.50;99.90;;;;;;4990853;28;20498;-66
2022/09/10 08:46:48;;;;;;;0.38;0.30;;;16.60;99.90;;;;;;4991137;28;20803;-66
2022/09/10 08:49:33;;;;;;;1.70;0.60;;;16.70;99.90;;;;;;4999115;23;20404;-71
2022/09/10 08:52:19;;;;;;;1.10;0.85;;;16.90;99.90;;;;;;4982586;28;20038;-71
2022/09/10 08:55:03;;;;;;;2.28;0.95;;;16.90;99.90;;;;;;4975757;28;20483;-71
2022/09/10 08:57:38;;;;;;;0.57;0.30;;;17.00;99.90;;;;;;4991049;28;20040;-71
2022/09/10 09:00:13;;;;;;;0.75;0.60;;;17.00;99.90;;;;;;4985586;28;20065;-72
2022/09/10 09:03:03;;;;;;;1.92;0.80;;;17.10;99.90;;;;;;4974289;28;20042;-71
2022/09/10 09:05:44;;;;;;;1.10;0.37;;;17.20;99.90;;;;;;4976156;28;20030;-71
2022/09/10 09:08:14;;;;;;;0.50;0.40;;;17.10;99.90;;;;;;4973495;28;20982;-71
2022/09/10 09:10:48;;;;;;;1.67;0.75;;;17.00;99.90;;;;;;4992519;28;20041;-72
2022/09/10 09:13:50;;;;;;;2.20;0.57;;;17.00;99.90;;;;;;5008680;28;20498;-72
2022/09/10 09:16:46;;;;;;;0.35;0.20;;;17.00;99.90;;;;;;4995861;28;20030;-71
2022/09/10 09:19:32;;;;;;;3.08;0.57;;;17.00;99.90;;;;;;5009887;28;20026;-72
2022/09/10 09:22:17;;;;;;;2.35;0.77;;;17.10;99.90;;;;;;4995508;28;20072;-71
2022/09/10 09:25:08;;;;;;;1.17;0.88;;;17.10;99.90;;;;;;5010187;28;20038;-72
2022/09/10 09:27:38;;;;;;;;;;;17.20;99.90;;;;;;4996588;28;20033;-71
2022/09/10 09:30:21;;;;;;;3.15;0.50;;;17.20;99.90;;;;;;4996319;28;19910;-71
2022/09/10 09:32:48;;;;;;;2.65;0.85;;;17.20;99.90;;;;;;4996382;28;20117;-72
2022/09/10 09:35:31;;;;;;;1.27;0.85;;;17.40;99.90;;;;;;4995956;28;20018;-71
2022/09/10 09:38:14;;;;;;;2.05;0.68;;;17.50;99.90;;;;;;4996346;28;20033;-72
2022/09/10 09:40:55;;;;;;;0.65;0.50;;;17.60;99.90;;;;;;5013322;28;20034;-71
2022/09/10 09:43:31;;;;;;;0.60;0.30;;;17.70;99.90;;;;;;4995902;28;20685;-71
2022/09/10 09:45:58;;;;;;;1.88;0.73;;;17.90;99.90;;;;;;5013501;28;20387;-71
2022/09/10 09:48:25;;;;;;;4.55;0.55;;;18.00;99.90;;;;;;4995686;28;20029;-71
2022/09/10 09:50:55;;;;;;;0.50;0.40;;;17.90;99.90;;;;;;5013050;28;20034;-71
2022/09/10 09:53:27;;;;;;;0.55;0.30;;;18.10;99.90;;;;;;4995856;28;20030;-72
2022/09/10 09:55:59;;;;;;;0.50;0.45;;;18.00;99.90;;;;;;5013452;28;20026;-71
2022/09/10 09:58:28;;;;;;;0.15;0.15;;;18.00;99.90;;;;;;4996350;28;20034;-71
2022/09/10 10:01:03;;;;;;;2.50;1.00;;;18.00;99.90;;;;;;5012728;28;20040;-71
2022/09/10 10:03:51;;;;;;;1.20;0.35;;;18.00;99.90;;;;;;5012270;28;20044;-72
2022/09/10 10:06:43;;;;;;;0.35;0.28;;;18.00;99.90;;;;;;4996775;28;20033;-71
2022/09/10 10:09:21;;;;;;;1.13;0.63;;;18.00;99.90;;;;;;4996585;28;20123;-71
2022/09/10 10:11:52;;;;;;;5.25;1.90;;;18.00;99.90;;;;;;4998276;28;20027;-71
2022/09/10 10:14:18;;;;;;;1.48;0.57;;;18.10;99.90;;;;;;4991600;28;20041;-71
2022/09/10 10:16:47;;;;;;;0.75;0.50;;;18.10;99.90;;;;;;4993471;28;20121;-71
2022/09/10 10:19:39;;;;;;;0.50;0.25;;;18.10;99.90;;;;;;4991369;28;20038;-71
2022/09/10 10:22:15;;;;;;;0.55;0.30;;;18.10;99.90;;;;;;4991940;28;20034;-71
2022/09/10 10:24:43;;;;;;;4.38;1.33;;;17.80;99.90;;;;;;4992870;28;20526;-71
2022/09/10 10:27:20;;;;;;;0.60;0.60;;;17.70;99.90;;;;;;4993093;28;20038;-71
2022/09/10 10:30:15;;;;;;;3.42;0.93;;;17.50;99.90;;;;;;4992296;28;20042;-71
2022/09/10 10:33:02;;;;;;;1.85;0.57;;;17.40;99.90;;;;;;4991453;28;20026;-72
2022/09/10 10:35:45;;;;;;;7.55;0.82;;;17.40;99.90;;;;;;4992772;28;20533;-71
2022/09/10 10:38:34;;;;;;;0.38;0.38;;;17.50;99.90;;;;;;4991283;28;20038;-70
2022/09/10 10:41:58;;;;;;;2.28;1.08;;;17.50;99.90;;;;;;4992463;28;20105;-71
2022/09/10 10:45:07;;;;;;;0.90;0.35;;;17.50;99.90;;;;;;4991301;28;20109;-71
2022/09/10 10:47:57;;;;;;;0.70;0.30;;;17.50;99.90;;;;;;4991781;28;20030;-72
2022/09/10 10:50:47;;;;;;;2.33;0.88;;;17.50;99.90;;;;;;4992070;28;20069;-72
2022/09/10 10:53:54;;;;;;;0.22;0.22;;;17.60;99.90;;;;;;4991358;28;20430;-71
2022/09/10 10:56:29;;;;;;;0.68;0.57;;;17.60;99.90;;;;;;4991577;28;20038;-71
2022/09/10 10:59:14;;;;;;;1.17;0.30;;;17.60;99.90;;;;;;4990729;28;20045;-71
2022/09/10 11:02:17;;;;;;;11.07;1.17;;;17.60;99.90;;;;;;4992487;28;20506;-71
2022/09/10 11:04:50;;;;;;;0.45;0.32;;;17.50;99.90;;;;;;4992338;28;20038;-71
2022/09/10 11:07:33;;;;;;;3.40;0.45;;;17.50;99.90;;;;;;4992377;28;20022;-71
2022/09/10 11:10:20;;;;;;;0.05;0.05;;;17.60;99.90;;;;;;4992097;28;20037;-71
2022/09/10 11:13:12;;;;;;;1.58;0.95;;;17.60;99.90;;;;;;5011774;28;20038;-72
2022/09/10 11:15:58;;;;;;;0.40;0.15;;;17.60;99.90;;;;;;5011765;28;20398;-72
2022/09/10 11:19:01;;;;;;;0.52;0.40;;;17.60;99.90;;;;;;5010755;28;20037;-71
2022/09/10 11:22:17;;;;;;;4.63;0.60;;;17.50;99.90;;;;;;4980826;28;20545;-71
2022/09/10 11:24:55;;;;;;;1.45;0.73;;;17.50;99.90;;;;;;5011514;28;20037;-71
2022/09/10 11:27:28;;;;;;;0.85;0.57;;;17.40;99.90;;;;;;4994875;28;20026;-72
2022/09/10 11:30:08;;;;;;;0.85;0.30;;;17.40;99.90;;;;;;4993238;28;20033;-71
2022/09/10 11:33:34;;;;;;;1.20;0.63;;;17.50;99.90;;;;;;4994317;28;20486;-72
2022/09/10 11:36:45;;;;;;;0.68;0.50;;;17.60;99.90;;;;;;4993594;28;20132;-72
2022/09/10 11:39:40;;;;;;;2.30;0.60;;;17.90;99.90;;;;;;5011076;28;20029;-71
2022/09/10 11:42:18;;;;;;;3.80;0.50;;;18.10;99.90;;;;;;4992000;28;20603;-72
2022/09/10 11:45:06;;;;;;;0.70;0.45;;;18.30;99.90;;;;;;5011174;28;20030;-72
2022/09/10 11:47:43;;;;;;;0.70;0.55;;;18.30;99.90;;;;;;4996724;28;20371;-72
2022/09/10 11:50:44;;;;;;;0.73;0.52;;;18.40;99.90;;;;;;4992946;28;20119;-71
2022/09/10 11:53:15;;;;;;;2.30;0.38;;;18.70;99.90;;;;;;4994468;28;20049;-72
2022/09/10 11:56:13;;;;;;;2.22;1.23;;;18.60;99.90;;;;;;5011264;28;20405;-72
2022/09/10 11:59:19;;;;;;;0.85;0.38;;;18.70;99.90;;;;;;5011365;28;20468;-71
2022/09/10 12:02:05;;;;;;;0.57;0.50;;;18.60;99.90;;;;;;4995027;28;20058;-72
2022/09/10 12:05:17;;;;;;;1.55;0.52;;;18.40;99.90;;;;;;5011620;28;20034;-71
2022/09/10 12:07:55;;;;;;;;;;;18.50;99.90;;;;;;4998452;28;20033;-71
2022/09/10 12:10:41;;;;;;;0.77;0.43;;;18.50;99.90;;;;;;4990269;28;19917;-72
2022/09/10 12:13:09;;;;;;;1.27;0.50;;;18.40;99.90;;;;;;4991338;28;20030;-72
2022/09/10 12:15:36;;;;;;;1.27;0.52;;;18.40;99.90;;;;;;4990289;28;20038;-72
2022/09/10 12:18:17;;;;;;;0.98;0.68;;;18.20;99.90;;;;;;4990179;28;20030;-72
2022/09/10 12:20:56;;;;;;;2.40;0.68;;;18.10;99.90;;;;;;4989699;28;20026;-72
2022/09/10 12:23:32;;;;;;;0.47;0.43;;;18.10;99.90;;;;;;4990996;28;20491;-72
2022/09/10 12:26:10;;;;;;;2.95;0.60;;;18.20;99.90;;;;;;4989749;28;20526;-72
2022/09/10 12:28:42;;;;;;;0.52;0.30;;;18.30;99.90;;;;;;4990284;28;20053;-72
2022/09/10 12:31:16;;;;;;;0.40;0.40;;;18.40;99.90;;;;;;4990792;28;20034;-71
2022/09/10 12:33:42;;;;;;;1.45;0.47;;;18.60;99.90;;;;;;4989488;28;20081;-71
2022/09/10 12:36:28;;;;;;;1.95;1.05;;;18.70;99.90;;;;;;4991312;28;20038;-72
2022/09/10 12:39:25;;;;;;;2.20;0.32;;;18.80;99.90;;;;;;4989531;28;20026;-72
2022/09/10 12:41:51;;;;;;;0.45;0.30;;;18.70;99.90;;;;;;4974040;28;20031;-71
2022/09/10 12:44:44;;;;;;;5.78;0.38;;;18.80;99.90;;;;;;4990688;28;20038;-72
2022/09/10 12:47:12;;;;;;;0.32;0.32;;;19.10;99.90;;;;;;4991004;28;20089;-72
2022/09/10 12:50:08;;;;;;;2.25;1.15;;;19.10;99.90;;;;;;4990554;28;20042;-72
2022/09/10 12:52:44;;;;;;;0.38;0.25;;;19.20;99.90;;;;;;4969559;28;20050;-72
2022/09/10 12:55:47;;;;;;;1.58;0.30;;;19.50;99.90;;;;;;4991358;28;20076;-71
2022/09/10 12:58:54;;;;;;;3.90;0.55;;;19.70;99.90;;;;;;4991145;28;20634;-72
2022/09/10 13:01:38;;;;;;;2.00;1.05;;;19.80;99.90;;;;;;4993430;28;20035;-72
2022/09/10 13:04:18;;;;;;;0.30;0.20;;;19.80;99.90;;;;;;4994384;28;20037;-72
2022/09/10 13:06:46;;;;;;;0.10;0.10;;;19.80;99.90;;;;;;4994811;28;20030;-72
2022/09/10 13:09:24;;;;;;;1.10;0.52;;;19.90;99.90;;;;;;4992916;28;20022;-72
2022/09/10 13:11:55;;;;;;;1.48;0.50;;;19.90;99.90;;;;;;4996906;28;20065;-73
2022/09/10 13:14:29;;;;;;;0.20;0.20;;;20.40;99.90;;;;;;4996692;28;20105;-73
2022/09/10 13:16:55;;;;;;;0.73;0.20;;;20.60;99.90;;;;;;5014137;28;20030;-73
2022/09/10 13:19:21;;;;;;;0.75;0.20;;;21.00;99.90;;;;;;5013588;28;20026;-72
2022/09/10 13:21:47;;;;;;;1.55;0.52;;;21.20;99.90;;;;;;5013803;28;20540;-72
2022/09/10 13:24:35;;;;;;;0.30;0.30;;;20.80;99.90;;;;;;5013619;28;20076;-73